createdAt,value
2022-10-23T00:00:54.914Z,996.31
2022-10-23T00:01:54.908Z,996.32
2022-10-23T00:02:54.931Z,996.30
2022-10-23T00:03:54.892Z,996.28
2022-10-23T00:04:54.876Z,996.27
2022-10-23T00:05:54.895Z,996.29
2022-10-23T00:06:54.857Z,996.25
2022-10-23T00:07:54.851Z,996.26
2022-10-23T00:08:54.835Z,996.36
2022-10-23T00:09:54.830Z,996.35
2022-10-23T00:10:54.819Z,996.35
2022-10-23T00:11:54.839Z,996.31
2022-10-23T00:12:54.799Z,996.37
2022-10-23T00:13:54.794Z,996.35
2022-10-23T00:14:54.779Z,996.36
2022-10-23T00:15:54.772Z,996.39
2022-10-23T00:16:54.750Z,996.37
2022-10-23T00:17:54.779Z,996.37
2022-10-23T00:18:54.732Z,996.30
2022-10-23T00:19:54.726Z,996.31
2022-10-23T00:20:54.709Z,996.29
2022-10-23T00:21:54.709Z,996.32
2022-10-23T00:22:54.690Z,996.36
2022-10-23T00:23:54.713Z,996.32
2022-10-23T00:24:54.671Z,996.35
2022-10-23T00:25:54.667Z,996.37
2022-10-23T00:26:54.652Z,996.38
2022-10-23T00:27:54.649Z,996.36
2022-10-23T00:28:54.643Z,996.39
2022-10-23T00:29:54.651Z,996.39
2022-10-23T00:30:54.611Z,996.38
2022-10-23T00:31:54.613Z,996.37
2022-10-23T00:32:54.592Z,996.33
2022-10-23T00:33:54.589Z,996.41
2022-10-23T00:34:54.574Z,996.35
2022-10-23T00:35:54.592Z,996.37
2022-10-23T00:36:54.560Z,996.32
2022-10-23T00:37:54.550Z,996.34
2022-10-23T00:38:54.540Z,996.35
2022-10-23T00:39:54.543Z,996.37
2022-10-23T00:40:54.515Z,996.34
2022-10-23T00:41:54.546Z,996.37
2022-10-23T00:42:54.493Z,996.36
2022-10-23T00:43:54.496Z,996.39
2022-10-23T00:44:54.472Z,996.33
2022-10-23T00:45:54.471Z,996.35
2022-10-23T00:46:54.454Z,996.37
2022-10-23T00:47:54.481Z,996.39
2022-10-23T00:48:54.443Z,996.40
2022-10-23T00:49:54.424Z,996.39
2022-10-23T00:50:54.416Z,996.38
2022-10-23T00:51:54.415Z,996.40
2022-10-23T00:52:54.393Z,996.40
2022-10-23T00:54:01.333Z,996.43
2022-10-23T00:54:55.377Z,996.31
2022-10-23T00:55:54.365Z,996.42
2022-10-23T00:56:54.360Z,996.34
2022-10-23T00:57:54.347Z,996.35
2022-10-23T00:58:54.343Z,996.32
2022-10-23T00:59:54.361Z,996.32
2022-10-23T01:00:54.313Z,996.37
2022-10-23T01:01:54.434Z,996.33
2022-10-23T01:02:54.305Z,996.31
2022-10-23T01:03:54.296Z,996.28
2022-10-23T01:04:54.273Z,996.22
2022-10-23T01:05:54.301Z,996.25
2022-10-23T01:06:54.255Z,996.23
2022-10-23T01:07:54.246Z,996.22
2022-10-23T01:08:54.315Z,996.24
2022-10-23T01:09:54.226Z,996.26
2022-10-23T01:10:54.216Z,996.27
2022-10-23T01:11:54.256Z,996.31
2022-10-23T01:12:54.194Z,996.32
2022-10-23T01:13:54.225Z,996.27
2022-10-23T01:14:54.177Z,996.25
2022-10-23T01:15:54.167Z,996.29
2022-10-23T01:16:54.157Z,996.26
2022-10-23T01:17:54.168Z,996.23
2022-10-23T01:18:54.138Z,996.25
2022-10-23T01:19:54.129Z,996.27
2022-10-23T01:20:54.111Z,996.24
2022-10-23T01:21:54.110Z,996.26
2022-10-23T01:22:54.097Z,996.29
2022-10-23T01:23:54.159Z,996.26
2022-10-23T01:24:54.077Z,996.25
2022-10-23T01:25:54.070Z,996.23
2022-10-23T01:26:54.058Z,996.29
2022-10-23T01:27:54.050Z,996.32
2022-10-23T01:28:54.031Z,996.28
2022-10-23T01:29:54.052Z,996.32
2022-10-23T01:30:54.025Z,996.25
2022-10-23T01:31:54.007Z,996.22
2022-10-23T01:32:54.000Z,996.30
2022-10-23T01:33:53.989Z,996.30
2022-10-23T01:34:53.972Z,996.21
2022-10-23T01:35:53.998Z,996.21
2022-10-23T01:36:53.968Z,996.22
2022-10-23T01:37:53.950Z,996.26
2022-10-23T01:38:54.002Z,996.27
2022-10-23T01:39:53.952Z,996.28
2022-10-23T01:40:53.912Z,996.31
2022-10-23T01:41:53.931Z,996.34
2022-10-23T01:42:53.900Z,996.33
2022-10-23T01:43:53.891Z,996.34
2022-10-23T01:44:53.880Z,996.30
2022-10-23T01:45:53.871Z,996.33
2022-10-23T01:46:53.854Z,996.36
2022-10-23T01:47:53.884Z,996.29
2022-10-23T01:48:53.831Z,996.34
2022-10-23T01:49:53.823Z,996.33
2022-10-23T01:50:53.827Z,996.33
2022-10-23T01:51:53.810Z,996.35
2022-10-23T01:52:53.794Z,996.33
2022-10-23T01:53:53.814Z,996.34
2022-10-23T01:54:53.774Z,996.39
2022-10-23T01:55:53.771Z,996.34
2022-10-23T01:56:53.752Z,996.38
2022-10-23T01:57:53.750Z,996.36
2022-10-23T01:58:53.733Z,996.39
2022-10-23T01:59:53.753Z,996.36
2022-10-23T02:00:53.714Z,996.37
2022-10-23T02:01:53.828Z,996.38
